Monday, December 18, 2017, 5:04 PM EST
Back to Local

KCLE, Cleveland-hopkins International

Location: Cleveland, OH, United States Lat: 41.4
Local Time: 5:04 PM EST (22:04 GMT) Lon: -81.85
Time Zone: US/Eastern Elev: 790 ft

Show me the last for .
Show Decoded

2017-12-18 16:51 METAR KCLE 182151Z 21009KT 10SM BKN014 OVC043 06/04 A2995 RMK AO2 SLP147
                 T00610044 =
2017-12-18 16:11 METAR KCLE 182111Z 22009KT 10SM OVC010 06/04 A2994 RMK AO2 T00610044 =
2017-12-18 15:51 METAR KCLE 182051Z 21009KT 10SM OVC009 06/04 A2994 RMK AO2 SLP144 60002
                 T00610044 56009 =
2017-12-18 14:51 METAR KCLE 181951Z 22009KT 9SM OVC007 06/04 A2995 RMK AO2 RAE01 SLP147 P0001
                 T00560044 =
2017-12-18 13:51 METAR KCLE 181851Z 22010KT 4SM -RA BR OVC007 06/04 A2996 RMK AO2 RAB01 SLP149
                 P0001 T00560039 =
2017-12-18 12:51 METAR KCLE 181751Z 21011KT 5SM BR OVC007 05/03 A2997 RMK AO2 SLP155 4/001
                 T00500033 10050 20039 56020 =
2017-12-18 11:51 METAR KCLE 181651Z 21011KT 6SM BR OVC008 05/03 A2999 RMK AO2 SLP160 T00500028 =
2017-12-18 10:51 METAR KCLE 181551Z 20012KT 7SM OVC010 04/03 A3001 RMK AO2 SLP167 T00440028 =
2017-12-18 10:37 METAR KCLE 181537Z 20012KT 7SM BKN010 OVC014 04/02 A3002 RMK AO2 T00440022 =
2017-12-18 09:51 METAR KCLE 181451Z 20008KT 6SM BR SCT014 SCT020 OVC047 04/02 A3003 RMK AO2
                 SLP176 T00390022 58000 =
2017-12-18 08:51 METAR KCLE 181351Z 19009KT 9SM BKN014 OVC047 04/01 A3004 RMK AO2 SLP177
                 T00390011 =
2017-12-18 07:51 METAR KCLE 181251Z 19009KT 10SM FEW015 OVC037 04/01 A3004 RMK AO2 SLP177
                 T00390006 =
2017-12-18 06:51 METAR KCLE 181151Z 20010KT 10SM BKN036 OVC047 04/01 A3003 RMK AO2 SLP176 4/001
                 T00390006 10044 20033 58005 =
2017-12-18 05:51 METAR KCLE 181051Z 21008KT 10SM BKN045 OVC055 04/01 A3004 RMK AO2 SLP179
                 T00390006 =
2017-12-18 04:51 METAR KCLE 180951Z 21008KT 10SM FEW042 OVC050 04/01 A3004 RMK AO2 SLP178
                 T00390006 =
2017-12-18 03:51 METAR KCLE 180851Z 21007KT 10SM OVC037 04/01 A3005 RMK AO2 SLP181 T00390006
                 56008 =
2017-12-18 02:51 METAR KCLE 180751Z 22008KT 10SM OVC033 04/01 A3006 RMK AO2 SLP185 T00390006 =
2017-12-18 01:51 METAR KCLE 180651Z 22005KT 10SM BKN034 OVC041 03/01 A3005 RMK AO2 SLP180
                 T00330011 =
2017-12-18 01:37 METAR KCLE 180637Z 20008KT 10SM OVC034 03/01 A3005 RMK AO2 T00330011 =
2017-12-18 00:51 METAR KCLE 180551Z 21006KT 10SM BKN026 OVC034 03/01 A3007 RMK AO2 SLP189 4/001
                 60000 T00330011 10033 20022 56011 =
2017-12-18 00:47 METAR KCLE 180547Z 21008KT 9SM BKN026 OVC034 03/01 A3008 RMK AO2 =
2017-12-18 00:13 METAR KCLE 180513Z 20009KT 8SM OVC030 03/02 A3009 RMK AO2 T00330017 =
2017-12-17 23:51 METAR KCLE 180451Z 20007KT 7SM FEW022 BKN027 OVC041 03/02 A3009 RMK AO2 DZE44
                 SLP197 P0000 T00330022 400391050 =
2017-12-17 22:51 METAR KCLE 180351Z 19009KT 5SM -DZ BR FEW020 SCT024 OVC037 03/02 A3011 RMK AO2
                 DZB46 SLP203 P0000 T00280017 =
2017-12-17 21:51 METAR KCLE 180251Z 19009KT 10SM SCT020 BKN026 OVC050 03/01 A3010 RMK AO2 SLP201
                 T00330011 51003 =
2017-12-17 21:19 METAR KCLE 180219Z 19008KT 10SM BKN025 OVC050 03/01 A3010 RMK AO2 T00330006 =
2017-12-17 21:08 METAR KCLE 180208Z 20008KT 10SM SCT023 OVC055 03/01 A3010 RMK AO2 T00330006 =
2017-12-17 20:51 METAR KCLE 180151Z 19009KT 10SM BKN023 OVC060 03/01 A3010 RMK AO2 SLP200
                 T00330006 =
2017-12-17 20:38 METAR KCLE 180138Z 18010KT 10SM BKN023 OVC055 03/01 A3010 RMK AO2 T00330006 =
2017-12-17 20:21 METAR KCLE 180121Z 19010KT 10SM SCT027 OVC060 03/01 A3010 RMK AO2 T00330006 =
2017-12-17 20:00 METAR KCLE 180100Z 18005KT 10SM BKN026 OVC090 03/01 A3010 RMK AO2 T00280006 =
2017-12-17 19:51 METAR KCLE 180051Z 19004KT 10SM BKN085 OVC120 03/01 A3011 RMK AO2 SLP204
                 T00280006 =
2017-12-17 18:51 METAR KCLE 172351Z 20005KT 10SM OVC090 03/01 A3009 RMK AO2 SLP199 4/001
                 T00280006 10039 20028 56006 =
2017-12-17 17:51 METAR KCLE 172251Z 19007KT 10SM OVC120 03/00 A3009 RMK AO2 SLP199 T00330000 =

Support USWX by starting your Amazon purchase here.